createdAt,value
2016-07-10T00:00:54.681Z,1009.41
2016-07-10T00:01:54.665Z,1009.47
2016-07-10T00:02:54.651Z,1009.46
2016-07-10T00:03:54.637Z,1009.41
2016-07-10T00:04:54.626Z,1009.38
2016-07-10T00:05:54.615Z,1009.4
2016-07-10T00:06:54.592Z,1009.33
2016-07-10T00:07:54.576Z,1009.39
2016-07-10T00:08:54.561Z,1009.3
2016-07-10T00:09:54.547Z,1009.36
2016-07-10T00:10:54.531Z,1009.32
2016-07-10T00:11:54.518Z,1009.31
2016-07-10T00:12:54.504Z,1009.29
2016-07-10T00:13:54.487Z,1009.29
2016-07-10T00:14:54.475Z,1009.31
2016-07-10T00:15:54.460Z,1009.26
2016-07-10T00:16:54.450Z,1009.27
2016-07-10T00:17:54.431Z,1009.26
2016-07-10T00:18:54.415Z,1009.26
2016-07-10T00:19:54.403Z,1009.26
2016-07-10T00:20:54.396Z,1009.21
2016-07-10T00:21:54.380Z,1009.25
2016-07-10T00:22:54.368Z,1009.23
2016-07-10T00:23:54.343Z,1009.19
2016-07-10T00:24:54.337Z,1009.15
2016-07-10T00:25:54.314Z,1009.14
2016-07-10T00:26:54.299Z,1009.12
2016-07-10T00:27:54.282Z,1009.15
2016-07-10T00:28:54.270Z,1009.16
2016-07-10T00:29:54.255Z,1009.16
2016-07-10T00:30:54.245Z,1009.21
2016-07-10T00:31:54.230Z,1009.22
2016-07-10T00:32:54.209Z,1009.2
2016-07-10T00:33:54.195Z,1009.21
2016-07-10T00:34:54.184Z,1009.22
2016-07-10T00:35:54.166Z,1009.22
2016-07-10T00:36:54.153Z,1009.22
2016-07-10T00:37:54.137Z,1009.24
2016-07-10T00:38:54.120Z,1009.24
2016-07-10T00:39:54.106Z,1009.23
2016-07-10T00:40:54.091Z,1009.24
2016-07-10T00:41:54.078Z,1009.23
2016-07-10T00:42:54.062Z,1009.2
2016-07-10T00:43:54.046Z,1009.23
2016-07-10T00:44:54.048Z,1009.19
2016-07-10T00:45:54.031Z,1009.22
2016-07-10T00:46:54.005Z,1009.17
2016-07-10T00:47:53.986Z,1009.23
2016-07-10T00:48:53.974Z,1009.17
2016-07-10T00:49:53.957Z,1009.19
2016-07-10T00:50:53.945Z,1009.18
2016-07-10T00:51:53.928Z,1009.2
2016-07-10T00:52:53.915Z,1009.2
2016-07-10T00:53:53.901Z,1009.22
2016-07-10T00:54:53.885Z,1009.16
2016-07-10T00:55:53.869Z,1009.2
2016-07-10T00:56:53.858Z,1009.22
2016-07-10T00:57:53.842Z,1009.22
2016-07-10T00:58:53.828Z,1009.21
2016-07-10T00:59:53.812Z,1009.22
2016-07-10T01:00:53.798Z,1009.21
2016-07-10T01:01:53.782Z,1009.19
2016-07-10T01:02:53.766Z,1009.29
2016-07-10T01:03:53.753Z,1009.26
2016-07-10T01:04:53.738Z,1009.28
2016-07-10T01:05:53.723Z,1009.25
2016-07-10T01:06:53.710Z,1009.31
2016-07-10T01:07:53.695Z,1009.29
2016-07-10T01:08:53.679Z,1009.3
2016-07-10T01:09:53.668Z,1009.27
2016-07-10T01:10:53.654Z,1009.35
2016-07-10T01:11:53.636Z,1009.37
2016-07-10T01:12:53.625Z,1009.36
2016-07-10T01:13:53.611Z,1009.39
2016-07-10T01:14:53.592Z,1009.33
2016-07-10T01:15:53.580Z,1009.33
2016-07-10T01:16:53.559Z,1009.37
2016-07-10T01:17:53.545Z,1009.33
2016-07-10T01:18:53.530Z,1009.42
2016-07-10T01:19:53.518Z,1009.35
2016-07-10T01:20:53.501Z,1009.35
2016-07-10T01:21:53.492Z,1009.37
2016-07-10T01:22:53.471Z,1009.38
2016-07-10T01:23:53.471Z,1009.42
2016-07-10T01:24:53.454Z,1009.4
2016-07-10T01:25:53.427Z,1009.34
2016-07-10T01:26:53.418Z,1009.29
2016-07-10T01:27:53.406Z,1009.24
2016-07-10T01:28:53.381Z,1009.23
2016-07-10T01:29:53.373Z,1009.24
2016-07-10T01:30:53.355Z,1009.19
2016-07-10T01:31:53.339Z,1009.17
2016-07-10T01:32:53.326Z,1009.16
2016-07-10T01:33:53.313Z,1009.18
2016-07-10T01:34:53.295Z,1009.18
2016-07-10T01:35:53.285Z,1009.17
2016-07-10T01:36:53.266Z,1009.17
2016-07-10T01:37:53.250Z,1009.2
2016-07-10T01:38:53.235Z,1009.17
2016-07-10T01:39:53.223Z,1009.2
2016-07-10T01:40:53.206Z,1009.16
2016-07-10T01:41:53.192Z,1009.15
2016-07-10T01:42:53.177Z,1009.14
2016-07-10T01:43:53.169Z,1009.11
2016-07-10T01:44:53.146Z,1009.13
2016-07-10T01:45:53.134Z,1009.11
2016-07-10T01:46:53.119Z,1009.1
2016-07-10T01:47:53.102Z,1009.12
2016-07-10T01:48:53.089Z,1009.1
2016-07-10T01:49:53.072Z,1009.06
2016-07-10T01:50:53.060Z,1009.06
2016-07-10T01:51:53.047Z,1009.08
2016-07-10T01:52:53.032Z,1009.05
2016-07-10T01:53:53.014Z,1009.02
2016-07-10T01:54:53.001Z,1009.01
2016-07-10T01:55:52.987Z,1009
2016-07-10T01:56:52.971Z,1009.03
2016-07-10T01:57:52.958Z,1008.99
2016-07-10T01:58:52.942Z,1009.02
2016-07-10T01:59:52.934Z,1008.94
2016-07-10T02:00:52.911Z,1008.94
2016-07-10T02:01:52.899Z,1008.92
2016-07-10T02:02:52.882Z,1008.96
2016-07-10T02:03:52.868Z,1008.94
2016-07-10T02:04:52.853Z,1008.96
2016-07-10T02:05:52.840Z,1008.92
2016-07-10T02:06:52.824Z,1008.87
2016-07-10T02:07:52.810Z,1008.84
2016-07-10T02:08:52.796Z,1008.86
2016-07-10T02:09:52.784Z,1008.91
2016-07-10T02:10:52.763Z,1008.86
2016-07-10T02:11:52.748Z,1008.86
2016-07-10T02:12:52.733Z,1008.82
2016-07-10T02:13:52.717Z,1008.82
2016-07-10T02:14:52.704Z,1008.83
2016-07-10T02:15:52.689Z,1008.81
2016-07-10T02:16:52.674Z,1008.87
2016-07-10T02:17:52.656Z,1008.86
2016-07-10T02:18:52.646Z,1008.86
2016-07-10T02:19:52.630Z,1008.81
2016-07-10T02:20:52.615Z,1008.78
2016-07-10T02:21:52.600Z,1008.78
2016-07-10T02:22:52.585Z,1008.75
2016-07-10T02:23:52.571Z,1008.78
2016-07-10T02:24:52.556Z,1008.74
2016-07-10T02:25:52.541Z,1008.77
2016-07-10T02:26:52.526Z,1008.73
2016-07-10T02:27:52.516Z,1008.75
2016-07-10T02:28:52.497Z,1008.72
2016-07-10T02:29:52.478Z,1008.72
2016-07-10T02:30:52.466Z,1008.72
2016-07-10T02:31:52.450Z,1008.69
2016-07-10T02:32:52.435Z,1008.69
2016-07-10T02:33:52.418Z,1008.71
2016-07-10T02:34:52.406Z,1008.69
2016-07-10T02:35:52.389Z,1008.66
2016-07-10T02:36:52.379Z,1008.71
2016-07-10T02:37:52.363Z,1008.73
2016-07-10T02:38:52.347Z,1008.7
2016-07-10T02:39:52.336Z,1008.66
2016-07-10T02:40:52.318Z,1008.63
2016-07-10T02:41:52.303Z,1008.63
2016-07-10T02:42:52.300Z,1008.61
2016-07-10T02:43:52.279Z,1008.62
2016-07-10T02:44:52.257Z,1008.64
2016-07-10T02:45:52.245Z,1008.62
2016-07-10T02:46:52.229Z,1008.6
2016-07-10T02:47:52.214Z,1008.56
2016-07-10T02:48:52.215Z,1008.55
2016-07-10T02:49:52.183Z,1008.54
2016-07-10T02:50:52.171Z,1008.53
2016-07-10T02:51:52.155Z,1008.5
2016-07-10T02:52:52.141Z,1008.49
2016-07-10T02:53:52.125Z,1008.48
2016-07-10T02:54:52.116Z,1008.45
2016-07-10T02:55:52.096Z,1008.44
2016-07-10T02:56:52.081Z,1008.43
2016-07-10T02:57:52.072Z,1008.44
2016-07-10T02:58:52.054Z,1008.44
2016-07-10T02:59:52.039Z,1008.44
2016-07-10T03:00:52.020Z,1008.43
2016-07-10T03:01:52.007Z,1008.44
2016-07-10T03:02:51.990Z,1008.41
2016-07-10T03:03:51.974Z,1008.4
2016-07-10T03:04:51.962Z,1008.4
2016-07-10T03:05:51.951Z,1008.39
2016-07-10T03:06:51.932Z,1008.39
2016-07-10T03:07:51.922Z,1008.37
2016-07-10T03:08:51.900Z,1008.38
2016-07-10T03:09:51.892Z,1008.42
2016-07-10T03:10:51.871Z,1008.36
2016-07-10T03:11:51.859Z,1008.32
2016-07-10T03:12:51.848Z,1008.38
2016-07-10T03:13:51.826Z,1008.33
2016-07-10T03:14:51.814Z,1008.35
2016-07-10T03:15:51.797Z,1008.32
2016-07-10T03:16:51.787Z,1008.33
2016-07-10T03:17:51.772Z,1008.34
2016-07-10T03:18:51.754Z,1008.3
2016-07-10T03:19:51.740Z,1008.31
2016-07-10T03:20:51.726Z,1008.33
2016-07-10T03:21:51.715Z,1008.32
2016-07-10T03:22:51.694Z,1008.33
2016-07-10T03:23:51.680Z,1008.34
2016-07-10T03:24:51.663Z,1008.3
2016-07-10T03:25:51.652Z,1008.29
2016-07-10T03:26:51.637Z,1008.27
2016-07-10T03:27:51.622Z,1008.31
2016-07-10T03:28:51.608Z,1008.24
2016-07-10T03:29:51.591Z,1008.26
2016-07-10T03:30:51.585Z,1008.26
2016-07-10T03:31:51.563Z,1008.22
2016-07-10T03:32:51.553Z,1008.24
2016-07-10T03:33:51.532Z,1008.22
2016-07-10T03:34:51.523Z,1008.2
2016-07-10T03:35:51.504Z,1008.19
2016-07-10T03:36:51.488Z,1008.12
2016-07-10T03:37:51.474Z,1008.15
2016-07-10T03:38:51.462Z,1008.12
2016-07-10T03:39:51.443Z,1008.13
2016-07-10T03:40:51.429Z,1008.16
2016-07-10T03:41:51.414Z,1008.17
2016-07-10T03:42:51.398Z,1008.13
2016-07-10T03:43:51.384Z,1008.15
2016-07-10T03:44:51.372Z,1008.13
2016-07-10T03:45:51.355Z,1008.1
2016-07-10T03:46:51.344Z,1008.13
2016-07-10T03:47:51.324Z,1008.17
2016-07-10T03:48:51.309Z,1008.13
2016-07-10T03:49:51.296Z,1008.14
2016-07-10T03:50:51.283Z,1008.19
2016-07-10T03:51:51.266Z,1008.13
2016-07-10T03:52:51.255Z,1008.14
2016-07-10T03:53:51.235Z,1008.17
2016-07-10T03:54:51.221Z,1008.14
2016-07-10T03:55:51.206Z,1008.1
2016-07-10T03:56:51.194Z,1008.14
2016-07-10T03:57:51.175Z,1008.2
2016-07-10T03:58:51.159Z,1008.19
2016-07-10T03:59:51.149Z,1008.18
2016-07-10T04:00:51.134Z,1008.16
2016-07-10T04:01:51.117Z,1008.2
2016-07-10T04:02:51.105Z,1008.22
2016-07-10T04:03:51.087Z,1008.2
2016-07-10T04:04:51.076Z,1008.17
2016-07-10T04:05:51.057Z,1008.17
2016-07-10T04:06:51.044Z,1008.19
2016-07-10T04:07:51.029Z,1008.19
2016-07-10T04:08:51.015Z,1008.15
2016-07-10T04:09:50.998Z,1008.17
2016-07-10T04:10:50.986Z,1008.13
2016-07-10T04:11:50.970Z,1008.1
2016-07-10T04:12:50.955Z,1008.12
2016-07-10T04:13:50.940Z,1008.18
2016-07-10T04:14:50.925Z,1008.15
2016-07-10T04:15:50.908Z,1008.15
2016-07-10T04:16:50.896Z,1008.15
2016-07-10T04:17:50.880Z,1008.12
2016-07-10T04:18:50.867Z,1008.11
2016-07-10T04:19:50.848Z,1008.1
2016-07-10T04:20:50.835Z,1008.09
2016-07-10T04:21:50.819Z,1008.1
2016-07-10T04:22:50.808Z,1008.06
2016-07-10T04:23:50.794Z,1008.08
2016-07-10T04:24:50.777Z,1008.06
2016-07-10T04:25:50.762Z,1008.11
2016-07-10T04:26:50.746Z,1008.08
2016-07-10T04:27:50.732Z,1008.12
2016-07-10T04:28:50.718Z,1008.12
2016-07-10T04:29:50.703Z,1008.18
2016-07-10T04:30:50.689Z,1008.15
2016-07-10T04:31:50.673Z,1008.14
2016-07-10T04:32:50.657Z,1008.19
2016-07-10T04:33:50.645Z,1008.17
2016-07-10T04:34:50.629Z,1008.17
2016-07-10T04:35:50.614Z,1008.17
2016-07-10T04:36:50.598Z,1008.15
2016-07-10T04:37:50.584Z,1008.16
2016-07-10T04:38:50.566Z,1008.15
2016-07-10T04:39:50.555Z,1008.14
2016-07-10T04:40:50.540Z,1008.13
2016-07-10T04:41:50.525Z,1008.12
2016-07-10T04:42:50.512Z,1008.14
2016-07-10T04:43:50.500Z,1008.15
2016-07-10T04:44:50.481Z,1008.14
2016-07-10T04:45:50.465Z,1008.13
2016-07-10T04:46:50.449Z,1008.12
2016-07-10T04:47:50.442Z,1008.1
2016-07-10T04:48:50.420Z,1008.06
2016-07-10T04:49:50.406Z,1008.1
2016-07-10T04:50:50.392Z,1008.11
2016-07-10T04:51:50.377Z,1008.08
2016-07-10T04:52:50.361Z,1008.1
2016-07-10T04:53:50.352Z,1008.09
2016-07-10T04:54:50.332Z,1008.1
2016-07-10T04:55:50.316Z,1008.1
2016-07-10T04:56:50.305Z,1008.11
2016-07-10T04:57:50.287Z,1008.08
2016-07-10T04:58:50.274Z,1008.1
2016-07-10T04:59:50.257Z,1008.14
2016-07-10T05:00:50.242Z,1008.09
2016-07-10T05:01:50.230Z,1008.1
2016-07-10T05:02:50.216Z,1008.11
2016-07-10T05:03:50.203Z,1008.12
2016-07-10T05:04:50.183Z,1008.11
2016-07-10T05:05:50.174Z,1008.13
2016-07-10T05:06:50.153Z,1008.12
2016-07-10T05:07:50.142Z,1008.12
2016-07-10T05:08:50.123Z,1008.09
2016-07-10T05:09:50.111Z,1008.11
2016-07-10T05:10:50.100Z,1008.11
2016-07-10T05:11:50.084Z,1008.1
2016-07-10T05:12:50.068Z,1008.16
2016-07-10T05:13:50.050Z,1008.12
2016-07-10T05:14:50.035Z,1008.15
2016-07-10T05:15:50.025Z,1008.09
2016-07-10T05:16:50.007Z,1008.07
2016-07-10T05:17:49.994Z,1008.09
2016-07-10T05:18:49.978Z,1008.08
2016-07-10T05:19:49.963Z,1008.08
2016-07-10T05:20:49.949Z,1008.04
2016-07-10T05:21:49.936Z,1008.01
2016-07-10T05:22:49.920Z,1008.05
2016-07-10T05:23:49.903Z,1008.06
2016-07-10T05:24:49.891Z,1008.01
2016-07-10T05:25:49.874Z,1008
2016-07-10T05:26:49.861Z,1008.02
2016-07-10T05:27:49.846Z,1007.99
2016-07-10T05:28:49.830Z,1007.98
2016-07-10T05:29:49.815Z,1007.98
2016-07-10T05:30:49.801Z,1007.96
2016-07-10T05:31:49.789Z,1007.97
2016-07-10T05:32:49.771Z,1008.01
2016-07-10T05:33:49.757Z,1007.96
2016-07-10T05:34:49.741Z,1007.94
2016-07-10T05:35:49.727Z,1007.96
2016-07-10T05:36:49.709Z,1007.95
2016-07-10T05:37:49.698Z,1007.96
2016-07-10T05:38:49.680Z,1007.91
2016-07-10T05:39:49.670Z,1007.91
2016-07-10T05:40:49.654Z,1007.86
2016-07-10T05:41:49.641Z,1007.88
2016-07-10T05:42:49.624Z,1007.89
2016-07-10T05:43:49.610Z,1007.85
2016-07-10T05:44:49.595Z,1007.91
2016-07-10T05:45:49.582Z,1007.88
2016-07-10T05:46:49.565Z,1007.88
2016-07-10T05:47:49.552Z,1007.89
2016-07-10T05:48:49.534Z,1007.96
2016-07-10T05:49:49.521Z,1007.91
2016-07-10T05:50:49.504Z,1007.95
2016-07-10T05:51:49.496Z,1007.91
2016-07-10T05:52:49.475Z,1007.98
2016-07-10T05:53:49.463Z,1007.92
2016-07-10T05:54:49.443Z,1007.91
2016-07-10T05:55:49.432Z,1007.95
2016-07-10T05:56:49.414Z,1007.91
2016-07-10T05:57:49.404Z,1007.91
2016-07-10T05:58:49.384Z,1007.89
2016-07-10T05:59:49.371Z,1007.93
2016-07-10T06:00:49.357Z,1007.94
2016-07-10T06:01:49.341Z,1007.95
2016-07-10T06:02:49.328Z,1007.99
2016-07-10T06:03:49.313Z,1007.95
2016-07-10T06:04:49.298Z,1007.94
2016-07-10T06:05:49.284Z,1007.88
2016-07-10T06:06:49.278Z,1007.87
2016-07-10T06:07:49.255Z,1007.91
2016-07-10T06:08:49.240Z,1007.88
2016-07-10T06:09:49.223Z,1007.88
2016-07-10T06:10:49.207Z,1007.82
2016-07-10T06:11:49.193Z,1007.85
2016-07-10T06:12:49.179Z,1007.78
2016-07-10T06:13:49.164Z,1007.76
2016-07-10T06:14:49.164Z,1007.78
2016-07-10T06:15:49.137Z,1007.8
2016-07-10T06:16:49.122Z,1007.74
2016-07-10T06:17:49.107Z,1007.74
2016-07-10T06:18:49.093Z,1007.7
2016-07-10T06:19:49.079Z,1007.71
2016-07-10T06:20:49.062Z,1007.74
2016-07-10T06:21:49.063Z,1007.71
2016-07-10T06:22:49.033Z,1007.69
2016-07-10T06:23:49.016Z,1007.67
2016-07-10T06:24:49.003Z,1007.66
2016-07-10T06:25:48.988Z,1007.67
2016-07-10T06:26:48.974Z,1007.6
2016-07-10T06:27:48.958Z,1007.66
2016-07-10T06:28:48.944Z,1007.63
2016-07-10T06:29:48.928Z,1007.63
2016-07-10T06:30:48.915Z,1007.63
2016-07-10T06:31:48.900Z,1007.63
2016-07-10T06:32:48.885Z,1007.61
2016-07-10T06:33:48.872Z,1007.59
2016-07-10T06:34:48.857Z,1007.55
2016-07-10T06:35:48.840Z,1007.61
2016-07-10T06:36:48.827Z,1007.63
2016-07-10T06:37:48.813Z,1007.59
2016-07-10T06:38:48.798Z,1007.63
2016-07-10T06:39:48.785Z,1007.62
2016-07-10T06:40:48.771Z,1007.59
2016-07-10T06:41:48.752Z,1007.55
2016-07-10T06:42:48.738Z,1007.57
2016-07-10T06:43:48.722Z,1007.55
2016-07-10T06:44:48.709Z,1007.62
2016-07-10T06:45:48.693Z,1007.61
2016-07-10T06:46:48.679Z,1007.69
2016-07-10T06:47:48.665Z,1007.62
2016-07-10T06:48:48.647Z,1007.63
2016-07-10T06:49:48.645Z,1007.66
2016-07-10T06:50:48.621Z,1007.59
2016-07-10T06:51:48.606Z,1007.6
2016-07-10T06:52:48.589Z,1007.58
2016-07-10T06:53:48.573Z,1007.6
2016-07-10T06:54:48.563Z,1007.59
2016-07-10T06:55:48.558Z,1007.58
2016-07-10T06:56:48.535Z,1007.59
2016-07-10T06:57:48.519Z,1007.54
2016-07-10T06:58:48.501Z,1007.51
2016-07-10T06:59:48.488Z,1007.56
2016-07-10T07:00:48.477Z,1007.51
2016-07-10T07:01:48.459Z,1007.5
2016-07-10T07:02:48.444Z,1007.46
2016-07-10T07:03:48.428Z,1007.45
2016-07-10T07:04:48.414Z,1007.43
2016-07-10T07:05:48.399Z,1007.45
2016-07-10T07:06:48.388Z,1007.44
2016-07-10T07:07:48.371Z,1007.38
2016-07-10T07:08:48.356Z,1007.42
2016-07-10T07:09:48.341Z,1007.38
2016-07-10T07:10:48.328Z,1007.34
2016-07-10T07:11:48.309Z,1007.32
2016-07-10T07:12:48.303Z,1007.3
2016-07-10T07:13:48.281Z,1007.28
2016-07-10T07:14:48.266Z,1007.22
2016-07-10T07:15:48.251Z,1007.22
2016-07-10T07:16:48.283Z,1007.09
2016-07-10T07:17:48.222Z,1007.12
2016-07-10T07:18:48.205Z,1007.1
2016-07-10T07:19:48.193Z,1007.12
2016-07-10T07:20:48.180Z,1007.13
2016-07-10T07:21:48.165Z,1007.17
2016-07-10T07:22:48.147Z,1007.18
2016-07-10T07:23:48.135Z,1007.08
2016-07-10T07:24:48.118Z,1007.13
2016-07-10T07:25:48.106Z,1007.08
2016-07-10T07:26:48.090Z,1007.01
2016-07-10T07:27:48.074Z,1006.99
2016-07-10T07:28:48.062Z,1007.01
2016-07-10T07:29:48.048Z,1007
2016-07-10T07:30:48.031Z,1007.01
2016-07-10T07:31:48.018Z,1006.96
2016-07-10T07:32:48.000Z,1006.92
2016-07-10T07:33:47.987Z,1006.97
2016-07-10T07:34:47.971Z,1006.9
2016-07-10T07:35:47.957Z,1006.96
2016-07-10T07:36:47.942Z,1006.98
2016-07-10T07:37:47.927Z,1006.95
2016-07-10T07:38:47.915Z,1006.91
2016-07-10T07:39:47.909Z,1006.91
2016-07-10T07:40:47.882Z,1006.95
2016-07-10T07:41:47.869Z,1006.91
2016-07-10T07:42:47.856Z,1006.92
2016-07-10T07:43:47.839Z,1006.95
2016-07-10T07:44:47.825Z,1006.93
2016-07-10T07:45:47.813Z,1006.92
2016-07-10T07:46:47.796Z,1006.92
2016-07-10T07:47:47.779Z,1006.96
2016-07-10T07:48:47.767Z,1006.93
2016-07-10T07:49:47.753Z,1006.91
2016-07-10T07:50:47.741Z,1006.9
2016-07-10T07:51:47.721Z,1006.89
2016-07-10T07:52:47.710Z,1006.91
2016-07-10T07:53:47.695Z,1006.93
2016-07-10T07:54:47.682Z,1006.87
2016-07-10T07:55:47.668Z,1006.89
2016-07-10T07:56:47.653Z,1006.89
2016-07-10T07:57:47.638Z,1006.85
2016-07-10T07:58:47.620Z,1006.87
2016-07-10T07:59:47.606Z,1006.88
2016-07-10T08:00:47.591Z,1006.84
2016-07-10T08:01:47.578Z,1006.88
2016-07-10T08:02:47.561Z,1006.91
2016-07-10T08:03:47.548Z,1006.88
2016-07-10T08:04:47.531Z,1006.91
2016-07-10T08:05:47.519Z,1006.9
2016-07-10T08:06:47.505Z,1006.86
2016-07-10T08:07:47.487Z,1006.92
2016-07-10T08:08:47.476Z,1006.84
2016-07-10T08:09:47.461Z,1006.88
2016-07-10T08:10:47.444Z,1006.82
2016-07-10T08:11:47.432Z,1006.79
2016-07-10T08:12:47.416Z,1006.83
2016-07-10T08:13:47.401Z,1006.82
2016-07-10T08:14:47.388Z,1006.77
2016-07-10T08:15:47.374Z,1006.76
2016-07-10T08:16:47.358Z,1006.79
2016-07-10T08:17:47.342Z,1006.78
2016-07-10T08:18:47.328Z,1006.79
2016-07-10T08:19:47.312Z,1006.79
2016-07-10T08:20:47.299Z,1006.74
2016-07-10T08:21:47.287Z,1006.78
2016-07-10T08:22:47.281Z,1006.77
2016-07-10T08:23:47.257Z,1006.73
2016-07-10T08:24:47.245Z,1006.75
2016-07-10T08:25:47.226Z,1006.7
2016-07-10T08:26:47.211Z,1006.69
2016-07-10T08:27:47.197Z,1006.69
2016-07-10T08:28:47.184Z,1006.65
2016-07-10T08:29:47.169Z,1006.66
2016-07-10T08:30:47.156Z,1006.64
2016-07-10T08:31:47.140Z,1006.59
2016-07-10T08:32:47.126Z,1006.61
2016-07-10T08:33:47.110Z,1006.58
2016-07-10T08:34:47.097Z,1006.62
2016-07-10T08:35:47.085Z,1006.58
2016-07-10T08:36:47.066Z,1006.57
2016-07-10T08:37:47.052Z,1006.56
2016-07-10T08:38:47.041Z,1006.53
2016-07-10T08:39:47.021Z,1006.58
2016-07-10T08:40:47.009Z,1006.57
2016-07-10T08:41:46.993Z,1006.56
2016-07-10T08:42:46.978Z,1006.58
2016-07-10T08:43:46.963Z,1006.56
2016-07-10T08:44:46.950Z,1006.54
2016-07-10T08:45:46.935Z,1006.64
2016-07-10T08:46:46.922Z,1006.61
2016-07-10T08:47:46.904Z,1006.6
2016-07-10T08:48:46.893Z,1006.56
2016-07-10T08:49:46.876Z,1006.55
2016-07-10T08:50:46.863Z,1006.58
2016-07-10T08:51:46.848Z,1006.58
2016-07-10T08:52:46.834Z,1006.55
2016-07-10T08:53:46.817Z,1006.55
2016-07-10T08:54:46.803Z,1006.47
2016-07-10T08:55:46.788Z,1006.46
2016-07-10T08:56:46.775Z,1006.51
2016-07-10T08:57:46.760Z,1006.47
2016-07-10T08:58:46.743Z,1006.43
2016-07-10T08:59:46.730Z,1006.43
2016-07-10T09:00:46.717Z,1006.38
2016-07-10T09:01:46.701Z,1006.48
2016-07-10T09:02:46.688Z,1006.43
2016-07-10T09:03:46.673Z,1006.39
2016-07-10T09:04:46.658Z,1006.38
2016-07-10T09:05:46.644Z,1006.37
2016-07-10T09:06:46.627Z,1006.37
2016-07-10T09:07:46.620Z,1006.4
2016-07-10T09:08:46.597Z,1006.35
2016-07-10T09:09:46.587Z,1006.43
2016-07-10T09:10:46.571Z,1006.39
2016-07-10T09:11:46.555Z,1006.34
2016-07-10T09:12:46.542Z,1006.31
2016-07-10T09:13:46.525Z,1006.31
2016-07-10T09:14:46.514Z,1006.27
2016-07-10T09:15:46.499Z,1006.28
2016-07-10T09:16:46.482Z,1006.25
2016-07-10T09:17:46.469Z,1006.19
2016-07-10T09:18:46.452Z,1006.24
2016-07-10T09:19:46.440Z,1006.24
2016-07-10T09:20:46.426Z,1006.21
2016-07-10T09:21:46.411Z,1006.2
2016-07-10T09:22:46.395Z,1006.25
2016-07-10T09:23:46.383Z,1006.26
2016-07-10T09:24:46.366Z,1006.25
2016-07-10T09:25:46.352Z,1006.23
2016-07-10T09:26:46.339Z,1006.3
2016-07-10T09:27:46.324Z,1006.23
2016-07-10T09:28:46.309Z,1006.2
2016-07-10T09:29:46.295Z,1006.18
2016-07-10T09:30:46.290Z,1006.08
2016-07-10T09:31:46.270Z,1006.09
2016-07-10T09:32:46.251Z,1006.13
2016-07-10T09:33:46.238Z,1006.14
2016-07-10T09:34:46.221Z,1006.06
2016-07-10T09:35:46.208Z,1006.06
2016-07-10T09:36:46.194Z,1006.01
2016-07-10T09:37:46.180Z,1006.01
2016-07-10T09:38:46.163Z,1006.02
2016-07-10T09:39:46.148Z,1005.96
2016-07-10T09:40:46.147Z,1006.02
2016-07-10T09:41:46.121Z,1005.97
2016-07-10T09:42:46.110Z,1005.95
2016-07-10T09:43:46.095Z,1006.02
2016-07-10T09:44:46.093Z,1005.99
2016-07-10T09:45:46.065Z,1005.96
2016-07-10T09:46:46.054Z,1005.99
2016-07-10T09:47:46.033Z,1005.97
2016-07-10T09:48:46.019Z,1006.06
2016-07-10T09:49:46.009Z,1006.01
2016-07-10T09:50:45.992Z,1006.03
2016-07-10T09:51:45.977Z,1005.97
2016-07-10T09:52:45.963Z,1006
2016-07-10T09:53:45.948Z,1005.95
2016-07-10T09:54:45.935Z,1005.95
2016-07-10T09:55:45.917Z,1005.93
2016-07-10T09:56:45.907Z,1005.92
2016-07-10T09:57:45.887Z,1005.98
2016-07-10T09:58:45.876Z,1005.92
2016-07-10T09:59:45.860Z,1005.88
2016-07-10T10:00:45.848Z,1005.92
2016-07-10T10:01:45.835Z,1005.88
2016-07-10T10:02:45.823Z,1005.9
2016-07-10T10:03:45.804Z,1005.87
2016-07-10T10:04:45.790Z,1005.9
2016-07-10T10:05:45.776Z,1005.87
2016-07-10T10:06:45.760Z,1005.85
2016-07-10T10:07:45.746Z,1005.8
2016-07-10T10:08:45.731Z,1005.82
2016-07-10T10:09:45.717Z,1005.78
2016-07-10T10:10:45.702Z,1005.77
2016-07-10T10:11:45.688Z,1005.78
2016-07-10T10:12:45.672Z,1005.79
2016-07-10T10:13:45.658Z,1005.78
2016-07-10T10:14:45.646Z,1005.77
2016-07-10T10:15:45.629Z,1005.76
2016-07-10T10:16:45.616Z,1005.77
2016-07-10T10:17:45.604Z,1005.79
2016-07-10T10:18:45.585Z,1005.78
2016-07-10T10:19:45.572Z,1005.8
2016-07-10T10:20:45.557Z,1005.83
2016-07-10T10:21:45.545Z,1005.78
2016-07-10T10:22:45.527Z,1005.81
2016-07-10T10:23:45.522Z,1005.82
2016-07-10T10:24:45.499Z,1005.84
2016-07-10T10:25:45.483Z,1005.82
2016-07-10T10:26:45.470Z,1005.76
2016-07-10T10:27:45.457Z,1005.78
2016-07-10T10:28:45.441Z,1005.76
2016-07-10T10:29:45.428Z,1005.67
2016-07-10T10:30:45.413Z,1005.67
2016-07-10T10:31:45.400Z,1005.72
2016-07-10T10:32:45.382Z,1005.64
2016-07-10T10:33:45.369Z,1005.71
2016-07-10T10:34:45.355Z,1005.68
2016-07-10T10:35:45.343Z,1005.64
2016-07-10T10:36:45.328Z,1005.61
2016-07-10T10:37:45.315Z,1005.67
2016-07-10T10:38:45.302Z,1005.55
2016-07-10T10:39:45.285Z,1005.53
2016-07-10T10:40:45.273Z,1005.55
2016-07-10T10:41:45.254Z,1005.56
2016-07-10T10:42:45.238Z,1005.46
2016-07-10T10:43:45.225Z,1005.51
2016-07-10T10:44:45.220Z,1005.52
2016-07-10T10:45:45.196Z,1005.49
2016-07-10T10:46:45.185Z,1005.49
2016-07-10T10:47:45.168Z,1005.48
2016-07-10T10:48:45.152Z,1005.49
2016-07-10T10:49:45.139Z,1005.47
2016-07-10T10:50:45.124Z,1005.41
2016-07-10T10:51:45.110Z,1005.43
2016-07-10T10:52:45.100Z,1005.41
2016-07-10T10:53:45.081Z,1005.37
2016-07-10T10:54:45.068Z,1005.44
2016-07-10T10:55:45.051Z,1005.38
2016-07-10T10:56:45.039Z,1005.36
2016-07-10T10:57:45.024Z,1005.34
2016-07-10T10:58:45.009Z,1005.34
2016-07-10T10:59:44.995Z,1005.34
2016-07-10T11:00:44.980Z,1005.33
2016-07-10T11:01:44.965Z,1005.36
2016-07-10T11:02:44.950Z,1005.34
2016-07-10T11:03:44.943Z,1005.31
2016-07-10T11:04:44.923Z,1005.26
2016-07-10T11:05:44.908Z,1005.29
2016-07-10T11:06:44.895Z,1005.29
2016-07-10T11:07:44.883Z,1005.28
2016-07-10T11:08:44.866Z,1005.3
2016-07-10T11:09:44.854Z,1005.3
2016-07-10T11:10:44.839Z,1005.24
2016-07-10T11:11:44.823Z,1005.24
2016-07-10T11:12:44.806Z,1005.22
2016-07-10T11:13:44.795Z,1005.22
2016-07-10T11:14:44.779Z,1005.22
2016-07-10T11:15:44.766Z,1005.21
2016-07-10T11:16:44.759Z,1005.17
2016-07-10T11:17:44.741Z,1005.21
2016-07-10T11:18:44.725Z,1005.16
2016-07-10T11:19:44.708Z,1005.18
2016-07-10T11:20:44.696Z,1005.14
2016-07-10T11:21:44.683Z,1005.13
2016-07-10T11:22:44.666Z,1005.12
2016-07-10T11:23:44.652Z,1005.13
2016-07-10T11:24:44.640Z,1005.09
2016-07-10T11:25:44.624Z,1005.11
2016-07-10T11:26:44.608Z,1005.03
2016-07-10T11:27:44.596Z,1005.05
2016-07-10T11:28:44.582Z,1005.12
2016-07-10T11:29:44.565Z,1005.12
2016-07-10T11:30:44.551Z,1005.09
2016-07-10T11:31:44.541Z,1005.11
2016-07-10T11:32:44.524Z,1005.08
2016-07-10T11:33:44.513Z,1005.06
2016-07-10T11:34:44.496Z,1005.03
2016-07-10T11:35:44.483Z,1005.05
2016-07-10T11:36:44.471Z,1005.02
2016-07-10T11:37:44.451Z,1004.98
2016-07-10T11:38:44.442Z,1004.92
2016-07-10T11:39:44.423Z,1004.85
2016-07-10T11:40:44.412Z,1004.86
2016-07-10T11:41:44.394Z,1004.83
2016-07-10T11:42:44.381Z,1004.85
2016-07-10T11:43:44.369Z,1004.82
2016-07-10T11:44:44.365Z,1004.78
2016-07-10T11:45:44.337Z,1004.82
2016-07-10T11:46:44.325Z,1004.8
2016-07-10T11:47:44.308Z,1004.83
2016-07-10T11:48:44.294Z,1004.76
2016-07-10T11:49:44.287Z,1004.76
2016-07-10T11:50:44.269Z,1004.71
2016-07-10T11:51:44.256Z,1004.71
2016-07-10T11:52:44.238Z,1004.68
2016-07-10T11:53:44.224Z,1004.76
2016-07-10T11:54:44.208Z,1004.7
2016-07-10T11:55:44.196Z,1004.68
2016-07-10T11:56:44.179Z,1004.66
2016-07-10T11:57:44.167Z,1004.63
2016-07-10T11:58:44.151Z,1004.59
2016-07-10T11:59:44.139Z,1004.67
2016-07-10T12:00:44.123Z,1004.65
2016-07-10T12:01:44.107Z,1004.55
2016-07-10T12:02:44.097Z,1004.6
2016-07-10T12:03:44.080Z,1004.54
2016-07-10T12:04:44.067Z,1004.58
2016-07-10T12:05:44.052Z,1004.6
2016-07-10T12:06:44.039Z,1004.58
2016-07-10T12:07:44.024Z,1004.49
2016-07-10T12:08:44.013Z,1004.45